Terminal Aerodrome Forecast
Issued by NWS

Home | Current Version | Previous Version | Text Only | Print | Product List | Glossary On
Versions: 1 2 3 4 5 6 7 8 9 10 11 12 13 14 15 16 17 18 19
000
FTPA31 PHFO 251800 AAA
TAFITO
TAF AMD
PHTO 251859Z 2519/2618 23004KT P6SM VCSH SCT025 BKN040
      TEMPO 2519/2520 -RA BKN025
     FM252100 09008KT P6SM VCSH SCT030 BKN045
     FM260500 23005KT P6SM VCSH SCT025 BKN040=

USA.gov is the U.S. government's official web portal to all federal, state and local government web resources and services.